Time;durP1;ratioP1;P1;durP2;ratioP2;P2;SDS_P1;SDS_P2;PMS_P1;PMS_P2;Temp;Humidity;BMP_temperature;BMP_pressure;BME280_temperature;BME280_humidity;BME280_pressure;Samples;Min_cycle;Max_cycle;Signal;HPM_P1;HPM_P2
2022/10/25 00:01:46;;;;;;;28.73;16.45;;;11.80;99.90;;;;;;5134508;27;20043;-50
2022/10/25 00:04:13;;;;;;;29.85;17.23;;;11.80;99.90;;;;;;5133636;27;20103;-48
2022/10/25 00:06:38;;;;;;;27.13;17.20;;;11.90;99.90;;;;;;5135003;27;20058;-46
2022/10/25 00:09:04;;;;;;;28.02;17.45;;;11.90;99.90;;;;;;5134948;27;20054;-53
2022/10/25 00:11:30;;;;;;;31.27;17.20;;;11.90;99.90;;;;;;5117240;27;20059;-46
2022/10/25 00:13:58;;;;;;;31.85;17.42;;;11.80;99.90;;;;;;5137096;27;20561;-44
2022/10/25 00:16:27;;;;;;;25.52;17.33;;;11.80;99.90;;;;;;5138155;27;20126;-53
2022/10/25 00:18:54;;;;;;;30.45;18.38;;;11.90;99.90;;;;;;5134257;27;20373;-50
2022/10/25 00:21:20;;;;;;;34.58;17.90;;;12.00;99.90;;;;;;5137963;27;20050;-52
2022/10/25 00:23:46;;;;;;;31.70;17.90;;;12.00;99.90;;;;;;5118251;27;20064;-50
2022/10/25 00:26:12;;;;;;;29.50;17.45;;;12.00;99.90;;;;;;5137966;27;20050;-52
2022/10/25 00:28:38;;;;;;;31.35;17.40;;;12.00;99.90;;;;;;5137521;27;20047;-55
2022/10/25 00:31:07;;;;;;;27.80;16.92;;;12.00;99.90;;;;;;5137917;27;20464;-46
2022/10/25 00:33:34;;;;;;;29.38;17.65;;;11.90;99.90;;;;;;5101019;27;20038;-47
2022/10/25 00:36:25;;;;;;;32.38;17.45;;;11.90;99.90;;;;;;5118685;27;20046;-52
2022/10/25 00:38:51;;;;;;;32.92;18.58;;;11.90;99.90;;;;;;5032510;28;20136;-50
2022/10/25 00:41:20;;;;;;;29.38;18.50;;;11.90;99.90;;;;;;5015790;28;20057;-50
2022/10/25 00:43:46;;;;;;;27.77;17.55;;;11.80;99.90;;;;;;5031697;28;20845;-55
2022/10/25 00:46:19;;;;;;;33.13;18.35;;;11.90;99.90;;;;;;5032694;28;20132;-47
2022/10/25 00:48:53;;;;;;;33.25;18.13;;;11.90;99.90;;;;;;5032515;28;20272;-49
2022/10/25 00:51:22;;;;;;;33.35;18.88;;;11.80;99.90;;;;;;5032929;28;20075;-51
2022/10/25 00:53:49;;;;;;;30.92;18.88;;;12.00;99.90;;;;;;5031636;28;20095;-50
2022/10/25 00:56:24;;;;;;;34.60;18.35;;;11.90;99.90;;;;;;5016184;28;20073;-51
2022/10/25 00:58:58;;;;;;;31.52;17.80;;;12.00;99.90;;;;;;5032838;28;20158;-46
2022/10/25 01:01:24;;;;;;;38.30;17.85;;;12.10;99.90;;;;;;5032371;28;20045;-49
2022/10/25 01:03:53;;;;;;;31.17;17.90;;;12.00;99.90;;;;;;5031686;28;20057;-51
2022/10/25 01:06:28;;;;;;;35.35;17.65;;;12.10;99.90;;;;;;5015401;28;20526;-45
2022/10/25 01:08:56;;;;;;;32.17;17.33;;;12.10;99.90;;;;;;5032499;28;20455;-51
2022/10/25 01:11:21;;;;;;;31.45;18.42;;;12.10;99.90;;;;;;5015724;28;20184;-47
2022/10/25 01:13:48;;;;;;;36.78;18.50;;;12.10;99.90;;;;;;5014889;28;20056;-49
2022/10/25 01:16:35;;;;;;;33.38;18.73;;;12.20;99.90;;;;;;5088432;27;20062;-53
2022/10/25 01:19:19;;;;;;;30.08;17.45;;;12.20;99.90;;;;;;5133635;27;20050;-50
2022/10/25 01:21:50;;;;;;;35.13;17.60;;;12.20;99.90;;;;;;5135649;27;20094;-47
2022/10/25 01:24:50;;;;;;;29.65;16.88;;;12.30;99.90;;;;;;5135580;27;20053;-51
2022/10/25 01:27:33;;;;;;;33.22;16.30;;;12.30;99.90;;;;;;5136850;27;20043;-49
2022/10/25 01:30:11;;;;;;;38.03;17.13;;;12.30;99.90;;;;;;5136287;27;20166;-50
2022/10/25 01:32:58;;;;;;;37.95;17.08;;;12.20;99.90;;;;;;5135421;27;20053;-55
2022/10/25 01:36:01;;;;;;;33.88;16.65;;;12.30;99.90;;;;;;5136500;27;20203;-47
2022/10/25 01:38:41;;;;;;;33.25;15.55;;;12.30;99.90;;;;;;5027450;28;20122;-52
2022/10/25 01:41:45;;;;;;;37.40;15.30;;;12.30;99.90;;;;;;5014888;28;20051;-55
2022/10/25 01:44:19;;;;;;;27.25;15.30;;;12.30;99.90;;;;;;5031200;28;20048;-53
2022/10/25 01:46:59;;;;;;;30.70;14.00;;;12.30;99.90;;;;;;5031478;28;20088;-52
2022/10/25 01:49:43;;;;;;;32.83;14.45;;;12.30;99.90;;;;;;5015234;28;20495;-49
2022/10/25 01:52:08;;;;;;;31.85;13.98;;;12.40;99.90;;;;;;5030277;28;20080;-51
2022/10/25 01:54:34;;;;;;;41.75;14.35;;;12.30;99.90;;;;;;5031820;28;20470;-50
2022/10/25 01:57:21;;;;;;;27.42;13.93;;;12.30;99.90;;;;;;5030945;28;20067;-46
2022/10/25 02:00:03;;;;;;;29.23;12.35;;;12.20;99.90;;;;;;5031537;28;20099;-51
2022/10/25 02:02:44;;;;;;;27.17;12.77;;;12.20;99.90;;;;;;5010490;28;20147;-51
2022/10/25 02:05:14;;;;;;;25.90;12.40;;;12.30;99.90;;;;;;5030128;28;20055;-45
2022/10/25 02:08:10;;;;;;;24.90;13.38;;;12.30;99.90;;;;;;5030607;28;20185;-46
2022/10/25 02:11:13;;;;;;;29.73;12.43;;;12.30;99.90;;;;;;5021048;28;20052;-52
2022/10/25 02:14:03;;;;;;;23.90;11.77;;;12.40;99.90;;;;;;5030432;28;20080;-48
2022/10/25 02:17:06;;;;;;;27.35;12.63;;;12.40;99.90;;;;;;5133922;27;20050;-53
2022/10/25 02:19:37;;;;;;;38.70;13.20;;;12.30;99.90;;;;;;5132449;27;20050;-50
2022/10/25 02:22:06;;;;;;;27.45;13.25;;;12.50;99.90;;;;;;5134573;27;20069;-47
2022/10/25 02:24:33;;;;;;;27.85;13.05;;;12.60;99.90;;;;;;5116600;27;20085;-51
2022/10/25 02:27:01;;;;;;;25.65;12.45;;;12.60;99.90;;;;;;5135597;27;20056;-48
2022/10/25 02:29:30;;;;;;;27.48;12.35;;;12.60;99.90;;;;;;5135070;27;20050;-52
2022/10/25 02:31:56;;;;;;;21.60;11.57;;;12.50;99.90;;;;;;5115553;27;20054;-52
2022/10/25 02:34:22;;;;;;;28.25;13.15;;;12.50;99.90;;;;;;5135964;27;20046;-52
2022/10/25 02:36:49;;;;;;;24.35;13.10;;;12.60;99.90;;;;;;5117173;27;20081;-49
2022/10/25 02:39:16;;;;;;;32.03;12.80;;;12.60;99.90;;;;;;5135795;27;20303;-53
2022/10/25 02:41:42;;;;;;;26.60;13.50;;;12.60;99.90;;;;;;5115510;27;20410;-51
2022/10/25 02:44:07;;;;;;;27.98;13.57;;;12.50;99.90;;;;;;5116651;27;20055;-55
2022/10/25 02:46:33;;;;;;;20.63;12.70;;;12.60;99.90;;;;;;5124527;27;20147;-47
2022/10/25 02:48:59;;;;;;;26.75;12.45;;;12.40;99.90;;;;;;5114904;27;20047;-49
2022/10/25 02:51:24;;;;;;;31.13;13.40;;;12.40;99.90;;;;;;5116447;27;20054;-55
2022/10/25 02:53:50;;;;;;;35.00;13.82;;;12.40;99.90;;;;;;5133775;27;20046;-47
2022/10/25 02:56:19;;;;;;;35.58;14.40;;;12.30;99.90;;;;;;5116564;27;20050;-49
2022/10/25 02:58:46;;;;;;;26.10;12.75;;;12.40;99.90;;;;;;5134707;27;20175;-50
2022/10/25 03:01:13;;;;;;;33.03;13.57;;;12.30;99.90;;;;;;5135377;27;20058;-52
2022/10/25 03:03:39;;;;;;;29.20;12.93;;;12.30;99.90;;;;;;5133800;27;20286;-44
2022/10/25 03:06:05;;;;;;;29.30;13.20;;;12.40;99.90;;;;;;5135559;27;20055;-51
2022/10/25 03:08:31;;;;;;;26.35;12.68;;;12.20;99.90;;;;;;5134370;27;20050;-49
2022/10/25 03:10:57;;;;;;;24.88;11.63;;;12.30;99.90;;;;;;5134759;27;20242;-55
2022/10/25 03:13:22;;;;;;;27.17;13.50;;;12.20;99.90;;;;;;5133573;27;20111;-45
2022/10/25 03:15:48;;;;;;;28.10;13.27;;;12.20;99.90;;;;;;5134487;27;20119;-50
2022/10/25 03:18:14;;;;;;;29.55;13.55;;;12.30;99.90;;;;;;5112448;27;20043;-52
2022/10/25 03:20:41;;;;;;;31.45;12.48;;;12.20;99.90;;;;;;5116376;27;20085;-53
2022/10/25 03:23:07;;;;;;;24.85;11.27;;;12.10;99.90;;;;;;5133510;27;20046;-52
2022/10/25 03:25:33;;;;;;;32.97;12.68;;;12.20;99.90;;;;;;5135215;27;20154;-49
2022/10/25 03:28:01;;;;;;;28.88;12.25;;;12.10;99.90;;;;;;5134488;27;20043;-48
2022/10/25 03:30:28;;;;;;;32.45;13.70;;;12.10;99.90;;;;;;5134853;27;20054;-52
2022/10/25 03:32:54;;;;;;;29.05;12.50;;;12.10;99.90;;;;;;5133658;27;20057;-51
2022/10/25 03:35:21;;;;;;;31.77;11.93;;;12.20;99.90;;;;;;5116284;27;20050;-51
2022/10/25 03:37:50;;;;;;;29.88;11.93;;;12.10;99.90;;;;;;5110296;27;20050;-50
2022/10/25 03:40:17;;;;;;;38.85;11.95;;;12.30;99.90;;;;;;5126848;27;20187;-46
2022/10/25 03:42:43;;;;;;;31.50;11.77;;;12.10;99.90;;;;;;5133359;27;20050;-45
2022/10/25 03:45:09;;;;;;;24.05;10.70;;;12.10;99.90;;;;;;5134696;27;20092;-49
2022/10/25 03:47:35;;;;;;;27.20;11.18;;;12.00;99.90;;;;;;5088820;27;20069;-47
2022/10/25 03:50:00;;;;;;;26.45;11.20;;;12.00;99.90;;;;;;5138090;27;20046;-52
2022/10/25 03:52:26;;;;;;;27.63;11.38;;;12.00;99.90;;;;;;5137123;27;20038;-53
2022/10/25 03:54:52;;;;;;;24.77;10.82;;;12.10;99.90;;;;;;5138740;27;20621;-52
2022/10/25 03:57:17;;;;;;;28.38;10.88;;;12.00;99.90;;;;;;5138358;27;20100;-51
2022/10/25 03:59:46;;;;;;;24.95;9.65;;;12.10;99.90;;;;;;5102861;27;20149;-54
2022/10/25 04:02:13;;;;;;;23.95;9.93;;;12.10;99.90;;;;;;5129388;27;20043;-50
2022/10/25 04:04:38;;;;;;;22.98;8.82;;;11.90;99.90;;;;;;5137348;27;20114;-55
2022/10/25 04:07:04;;;;;;;26.58;8.60;;;11.90;99.90;;;;;;5136976;27;20771;-49
2022/10/25 04:09:30;;;;;;;26.98;9.77;;;11.90;99.90;;;;;;5137527;27;20398;-49
2022/10/25 04:11:55;;;;;;;25.00;9.90;;;11.80;99.90;;;;;;5137218;27;20077;-51
2022/10/25 04:14:21;;;;;;;26.48;8.77;;;11.80;99.90;;;;;;5138453;27;20452;-51
2022/10/25 04:16:46;;;;;;;29.75;9.95;;;11.90;99.90;;;;;;5138458;27;20047;-50
2022/10/25 04:19:12;;;;;;;31.15;9.70;;;11.90;99.90;;;;;;5134990;27;20659;-47
2022/10/25 04:21:38;;;;;;;30.35;10.18;;;11.80;99.90;;;;;;5136946;27;20280;-55
2022/10/25 04:24:04;;;;;;;30.95;10.27;;;11.80;99.90;;;;;;5138524;27;20046;-52
2022/10/25 04:26:30;;;;;;;33.40;10.52;;;11.90;99.90;;;;;;5137716;27;20046;-44
2022/10/25 04:28:55;;;;;;;27.67;9.88;;;11.90;99.90;;;;;;5119713;27;20456;-55
2022/10/25 04:31:22;;;;;;;31.65;10.95;;;11.80;99.90;;;;;;5137582;27;20219;-54
2022/10/25 04:33:53;;;;;;;39.33;10.73;;;11.90;99.90;;;;;;5118172;27;20073;-55
2022/10/25 04:36:19;;;;;;;37.08;10.77;;;11.90;99.90;;;;;;5137477;27;20047;-49
2022/10/25 04:38:49;;;;;;;43.08;12.27;;;12.00;99.90;;;;;;5137451;27;20102;-53
2022/10/25 04:41:15;;;;;;;36.15;12.43;;;11.80;99.90;;;;;;5124713;27;20423;-52
2022/10/25 04:43:41;;;;;;;37.08;11.43;;;11.90;99.90;;;;;;5136153;27;20752;-50
2022/10/25 04:46:06;;;;;;;41.83;10.75;;;11.90;99.90;;;;;;5137395;27;20068;-52
2022/10/25 04:48:32;;;;;;;44.28;11.77;;;11.80;99.90;;;;;;5118993;27;20151;-49
2022/10/25 04:51:01;;;;;;;35.92;11.88;;;11.80;99.90;;;;;;5137445;27;20045;-50
2022/10/25 04:53:26;;;;;;;35.28;12.40;;;11.80;99.90;;;;;;5135938;27;20092;-53
2022/10/25 04:56:00;;;;;;;38.80;13.13;;;11.70;99.90;;;;;;5138465;27;20050;-46
2022/10/25 04:58:27;;;;;;;34.03;12.93;;;11.70;99.90;;;;;;5117919;27;20141;-55
2022/10/25 05:00:53;;;;;;;39.17;13.85;;;11.70;99.90;;;;;;5137410;27;20058;-46
2022/10/25 05:03:19;;;;;;;31.38;13.82;;;11.70;99.90;;;;;;5117586;27;20046;-48
2022/10/25 05:05:45;;;;;;;38.05;14.27;;;11.70;99.90;;;;;;5136839;27;20058;-50
2022/10/25 05:08:11;;;;;;;38.53;12.98;;;11.70;99.90;;;;;;5137293;27;20562;-46
2022/10/25 05:10:36;;;;;;;33.00;15.85;;;11.70;99.90;;;;;;5137550;27;20620;-56
2022/10/25 05:13:02;;;;;;;33.30;13.77;;;11.70;99.90;;;;;;5135631;27;20047;-47
2022/10/25 05:15:28;;;;;;;34.40;13.63;;;11.70;99.90;;;;;;5118443;27;20056;-50
2022/10/25 05:17:58;;;;;;;33.67;11.77;;;11.60;99.90;;;;;;5135195;27;20047;-50
2022/10/25 05:20:24;;;;;;;29.35;12.20;;;11.70;99.90;;;;;;5135858;27;20042;-51
2022/10/25 05:22:49;;;;;;;35.35;10.55;;;11.70;99.90;;;;;;5135489;27;20053;-45
2022/10/25 05:25:15;;;;;;;36.55;11.20;;;11.80;99.90;;;;;;5118666;27;20070;-44
2022/10/25 05:27:41;;;;;;;29.20;10.63;;;11.70;99.90;;;;;;5136570;27;20042;-47
2022/10/25 05:30:07;;;;;;;37.85;11.18;;;11.80;99.90;;;;;;5118833;27;20049;-44
2022/10/25 05:32:33;;;;;;;27.40;10.07;;;11.70;99.90;;;;;;5135633;27;20496;-44
2022/10/25 05:34:58;;;;;;;33.88;11.23;;;11.80;99.90;;;;;;5136708;27;20054;-47
2022/10/25 05:37:24;;;;;;;30.63;11.20;;;11.60;99.90;;;;;;5136975;27;20196;-51
2022/10/25 05:39:49;;;;;;;33.22;10.35;;;11.70;99.90;;;;;;5137102;27;20503;-46
2022/10/25 05:42:15;;;;;;;35.42;11.45;;;11.60;99.90;;;;;;5135408;27;20089;-44
2022/10/25 05:44:41;;;;;;;28.17;9.38;;;11.60;99.90;;;;;;5137235;27;20042;-50
2022/10/25 05:47:06;;;;;;;26.05;10.32;;;11.60;99.90;;;;;;5118059;27;20070;-45
2022/10/25 05:49:38;;;;;;;33.08;9.68;;;11.60;99.90;;;;;;5136555;27;20500;-51
2022/10/25 05:52:07;;;;;;;30.30;10.95;;;11.80;99.90;;;;;;5135558;27;20571;-51
2022/10/25 05:54:32;;;;;;;25.95;8.50;;;11.60;99.90;;;;;;5136603;27;20046;-55
2022/10/25 05:56:58;;;;;;;30.10;9.20;;;11.80;99.90;;;;;;5136217;27;20089;-50
2022/10/25 05:59:24;;;;;;;29.58;9.23;;;11.60;99.90;;;;;;5118080;27;20130;-51
2022/10/25 06:01:49;;;;;;;23.02;8.13;;;11.80;99.90;;;;;;5134777;27;20053;-46
2022/10/25 06:04:16;;;;;;;26.92;8.10;;;11.60;99.90;;;;;;5136366;27;20085;-43
2022/10/25 06:06:43;;;;;;;29.70;8.05;;;11.60;99.90;;;;;;5117855;27;20085;-50
2022/10/25 06:09:10;;;;;;;25.05;7.13;;;11.60;99.90;;;;;;5136022;27;20054;-51
2022/10/25 06:11:36;;;;;;;23.45;8.63;;;11.50;99.90;;;;;;5135281;27;20099;-46
2022/10/25 06:14:03;;;;;;;21.25;8.02;;;11.40;99.90;;;;;;5136926;27;20054;-50
2022/10/25 06:16:29;;;;;;;26.77;7.78;;;11.50;99.90;;;;;;5135780;27;20053;-55
2022/10/25 06:18:54;;;;;;;33.33;7.82;;;11.50;99.90;;;;;;5132970;27;20047;-52
2022/10/25 06:21:23;;;;;;;26.00;7.28;;;11.40;99.90;;;;;;5134720;27;20042;-47
2022/10/25 06:23:49;;;;;;;25.17;7.32;;;11.40;99.90;;;;;;5135635;27;20085;-48
2022/10/25 06:26:18;;;;;;;28.20;7.82;;;11.40;99.90;;;;;;5100560;27;20142;-49
2022/10/25 06:28:44;;;;;;;28.20;7.47;;;11.50;99.90;;;;;;5135891;27;20567;-52
2022/10/25 06:31:10;;;;;;;28.98;8.02;;;11.70;99.90;;;;;;5099460;27;20097;-52
2022/10/25 06:33:37;;;;;;;30.55;8.55;;;11.50;99.90;;;;;;5135290;27;20451;-48
2022/10/25 06:36:04;;;;;;;31.00;8.23;;;11.50;99.90;;;;;;5136557;27;20034;-50
2022/10/25 06:38:30;;;;;;;28.05;7.75;;;11.60;99.90;;;;;;5117835;27;20058;-44
2022/10/25 06:41:00;;;;;;;29.80;8.35;;;11.50;99.90;;;;;;5136503;27;20042;-45
2022/10/25 06:43:26;;;;;;;29.52;8.80;;;11.50;99.90;;;;;;5135041;27;20042;-45
2022/10/25 06:45:52;;;;;;;31.58;7.88;;;11.50;99.90;;;;;;5136043;27;20514;-50
2022/10/25 06:48:18;;;;;;;26.45;8.10;;;11.60;99.90;;;;;;5136305;27;20050;-50
2022/10/25 06:50:43;;;;;;;29.17;7.65;;;11.60;99.90;;;;;;5136204;27;20047;-53
2022/10/25 06:53:09;;;;;;;29.80;7.03;;;11.50;99.90;;;;;;5135520;27;20034;-51
2022/10/25 06:55:35;;;;;;;24.52;7.57;;;11.60;99.90;;;;;;5136336;27;20130;-47
2022/10/25 06:58:00;;;;;;;26.90;8.10;;;11.50;99.90;;;;;;5136320;27;20091;-43
2022/10/25 07:00:26;;;;;;;34.70;8.40;;;11.60;99.90;;;;;;5136250;27;20031;-50
2022/10/25 07:02:56;;;;;;;23.90;8.57;;;11.60;99.90;;;;;;5135488;27;20099;-50
2022/10/25 07:05:22;;;;;;;30.77;9.35;;;11.80;99.90;;;;;;5135805;27;20548;-51
2022/10/25 07:07:48;;;;;;;32.78;9.68;;;11.80;99.90;;;;;;5137496;27;20047;-55
2022/10/25 07:10:14;;;;;;;37.40;10.07;;;11.80;99.90;;;;;;5136081;27;20133;-54
2022/10/25 07:12:39;;;;;;;29.50;9.02;;;11.80;99.90;;;;;;5116517;27;20095;-49
2022/10/25 07:15:06;;;;;;;34.72;8.50;;;11.70;99.90;;;;;;5119100;27;20042;-48
2022/10/25 07:17:31;;;;;;;33.08;8.98;;;11.80;99.90;;;;;;5115906;27;20442;-51
2022/10/25 07:19:57;;;;;;;25.08;8.73;;;11.80;99.90;;;;;;5139679;27;20038;-50
2022/10/25 07:22:23;;;;;;;37.60;9.10;;;12.10;99.90;;;;;;5142017;27;20065;-45
2022/10/25 07:24:49;;;;;;;29.55;8.98;;;11.90;99.90;;;;;;5149226;27;20074;-49
2022/10/25 07:27:15;;;;;;;34.78;9.35;;;12.10;99.90;;;;;;5134464;27;20458;-50
2022/10/25 07:29:41;;;;;;;28.35;9.25;;;12.10;99.90;;;;;;5130382;27;20043;-52
2022/10/25 07:32:08;;;;;;;31.63;9.75;;;12.00;99.90;;;;;;5139435;27;20042;-54
2022/10/25 07:34:34;;;;;;;35.95;9.32;;;12.10;99.90;;;;;;5140117;27;20112;-50
2022/10/25 07:36:59;;;;;;;30.27;8.65;;;12.10;99.90;;;;;;5120506;27;20496;-53
2022/10/25 07:39:25;;;;;;;34.15;9.30;;;12.00;99.90;;;;;;5140478;27;20054;-48
2022/10/25 07:41:52;;;;;;;37.03;9.77;;;12.00;99.90;;;;;;5138908;27;20130;-52
2022/10/25 07:44:19;;;;;;;29.13;9.13;;;12.10;99.90;;;;;;5139279;27;20934;-50
2022/10/25 07:46:45;;;;;;;26.58;9.77;;;12.40;99.90;;;;;;5132101;27;20209;-50
2022/10/25 07:49:11;;;;;;;32.15;9.80;;;12.50;99.90;;;;;;5126568;27;20142;-44
2022/10/25 07:51:37;;;;;;;34.85;10.10;;;12.50;99.90;;;;;;5102808;27;20051;-55
2022/10/25 07:54:02;;;;;;;36.28;10.10;;;12.50;99.90;;;;;;5135857;27;20526;-49
2022/10/25 07:56:29;;;;;;;28.55;10.10;;;12.70;99.90;;;;;;5133246;27;20150;-51
2022/10/25 07:58:55;;;;;;;28.77;11.98;;;12.60;99.90;;;;;;5138223;27;20083;-53
2022/10/25 08:01:23;;;;;;;25.05;10.25;;;12.60;99.90;;;;;;5137992;27;20126;-46
2022/10/25 08:03:50;;;;;;;46.72;14.73;;;12.50;99.90;;;;;;5126455;27;20051;-52
2022/10/25 08:06:16;;;;;;;34.20;14.25;;;12.70;99.90;;;;;;5139149;27;20046;-46
2022/10/25 08:08:42;;;;;;;32.30;13.70;;;12.80;99.90;;;;;;5139518;27;20517;-52
2022/10/25 08:11:08;;;;;;;37.50;14.93;;;12.80;99.90;;;;;;5138903;27;20050;-52
2022/10/25 08:13:36;;;;;;;38.42;16.65;;;12.80;99.90;;;;;;5139682;27;20367;-49
2022/10/25 08:16:02;;;;;;;41.53;16.00;;;12.90;99.90;;;;;;5120771;27;20053;-49
2022/10/25 08:18:28;;;;;;;36.75;16.13;;;12.90;99.90;;;;;;5136298;27;20566;-47
2022/10/25 08:20:54;;;;;;;33.17;15.68;;;13.00;99.90;;;;;;5121060;27;20466;-44
2022/10/25 08:23:19;;;;;;;38.70;15.88;;;12.90;99.90;;;;;;5137967;27;20399;-50
2022/10/25 08:25:45;;;;;;;37.10;16.08;;;13.10;99.90;;;;;;5120795;27;20141;-49
2022/10/25 08:28:11;;;;;;;35.83;16.30;;;13.10;99.90;;;;;;5139706;27;20050;-48
2022/10/25 08:30:38;;;;;;;41.13;17.75;;;13.20;99.90;;;;;;5121135;27;20061;-55
2022/10/25 08:33:05;;;;;;;33.15;16.92;;;13.20;99.90;;;;;;5138149;27;20110;-52
2022/10/25 08:35:31;;;;;;;40.22;16.73;;;13.30;99.90;;;;;;5139269;27;20050;-51
2022/10/25 08:38:00;;;;;;;29.02;15.80;;;13.40;99.90;;;;;;5139285;27;20047;-53
2022/10/25 08:40:39;;;;;;;41.30;17.92;;;13.60;99.90;;;;;;5120710;27;20159;-54
2022/10/25 08:43:38;;;;;;;38.75;15.77;;;13.70;99.90;;;;;;5138164;27;20469;-45
2022/10/25 08:46:12;;;;;;;34.58;16.42;;;13.80;99.90;;;;;;5113820;27;20494;-51
2022/10/25 08:48:43;;;;;;;37.25;16.08;;;13.80;99.90;;;;;;5133399;27;20410;-47
2022/10/25 08:51:33;;;;;;;35.55;16.02;;;13.80;99.90;;;;;;5138305;27;20639;-49
2022/10/25 08:54:17;;;;;;;29.50;14.35;;;14.00;99.90;;;;;;5120424;27;20136;-57
2022/10/25 08:56:43;;;;;;;36.83;15.27;;;14.10;99.90;;;;;;5138611;27;20054;-48
2022/10/25 08:59:14;;;;;;;29.85;14.43;;;14.10;99.90;;;;;;5138990;27;20042;-53
2022/10/25 09:01:46;;;;;;;27.45;12.65;;;14.10;99.90;;;;;;5138330;27;20074;-49
2022/10/25 09:04:11;;;;;;;26.05;13.40;;;14.30;99.90;;;;;;5140155;27;20050;-51
2022/10/25 09:06:42;;;;;;;31.60;13.23;;;14.40;99.90;;;;;;5119885;27;20055;-52
2022/10/25 09:09:30;;;;;;;29.67;12.93;;;14.40;99.90;;;;;;5138902;27;20043;-50
2022/10/25 09:12:20;;;;;;;26.90;11.60;;;14.40;99.90;;;;;;5118771;27;20062;-47
2022/10/25 09:14:46;;;;;;;28.73;12.13;;;14.60;99.90;;;;;;5139314;27;20333;-54
2022/10/25 09:17:18;;;;;;;26.15;10.50;;;14.70;99.90;;;;;;5139251;27;20046;-48
2022/10/25 09:20:01;;;;;;;26.88;10.13;;;14.70;99.90;;;;;;5135191;27;20061;-49
2022/10/25 09:22:29;;;;;;;21.67;9.45;;;14.70;99.90;;;;;;5138130;27;20058;-53
2022/10/25 09:25:35;;;;;;;25.52;11.00;;;14.70;99.90;;;;;;5139004;27;20085;-50
2022/10/25 09:28:11;;;;;;;30.83;9.63;;;14.60;99.90;;;;;;5034051;28;20061;-44
2022/10/25 09:30:41;;;;;;;22.67;8.02;;;14.40;99.90;;;;;;5034110;28;20063;-54
2022/10/25 09:33:12;;;;;;;20.63;8.05;;;14.40;99.90;;;;;;5033321;28;20049;-55
2022/10/25 09:35:47;;;;;;;17.67;7.35;;;14.30;99.90;;;;;;5034253;28;20048;-49
2022/10/25 09:38:23;;;;;;;13.70;5.78;;;14.30;99.90;;;;;;5034529;28;20064;-50
2022/10/25 09:41:02;;;;;;;21.35;6.68;;;14.40;99.90;;;;;;5033417;28;20097;-56
2022/10/25 09:43:55;;;;;;;22.15;6.15;;;14.40;99.90;;;;;;5033839;28;20127;-46
2022/10/25 09:46:41;;;;;;;16.93;6.50;;;14.40;99.90;;;;;;5033704;28;20048;-44
2022/10/25 09:49:15;;;;;;;26.02;7.93;;;14.50;99.90;;;;;;5033876;28;20577;-50
2022/10/25 09:52:10;;;;;;;21.98;6.75;;;14.50;99.90;;;;;;5032819;28;20060;-48
2022/10/25 09:54:43;;;;;;;18.00;7.20;;;14.60;99.90;;;;;;5033980;28;20456;-49
2022/10/25 09:57:08;;;;;;;15.10;7.32;;;14.60;99.90;;;;;;5016676;28;20060;-45
2022/10/25 09:59:34;;;;;;;20.73;6.50;;;14.70;99.90;;;;;;5033521;28;20204;-51
2022/10/25 10:02:00;;;;;;;25.40;6.72;;;14.60;99.90;;;;;;5031799;28;20041;-44
2022/10/25 10:04:36;;;;;;;20.13;7.57;;;14.60;99.90;;;;;;5100553;27;20067;-51
2022/10/25 10:07:31;;;;;;;19.25;7.38;;;14.60;99.90;;;;;;5137519;27;20047;-52
2022/10/25 10:10:01;;;;;;;19.52;7.40;;;14.50;99.90;;;;;;5137339;27;20914;-51
2022/10/25 10:12:44;;;;;;;25.20;8.20;;;14.50;99.90;;;;;;5118551;27;20109;-49
2022/10/25 10:15:23;;;;;;;;;;;14.50;99.90;;;;;;5138101;27;20458;-44
2022/10/25 10:18:20;;;;;;;29.10;9.13;;;14.40;99.90;;;;;;5136023;27;19929;-47
2022/10/25 10:20:56;;;;;;;19.30;9.50;;;14.50;99.90;;;;;;5128513;27;20046;-53
2022/10/25 10:23:22;;;;;;;26.63;10.30;;;14.40;99.90;;;;;;5136986;27;20147;-50
2022/10/25 10:25:48;;;;;;;20.35;11.02;;;14.50;99.90;;;;;;5137271;27;20429;-54
2022/10/25 10:28:14;;;;;;;20.50;11.68;;;14.50;99.90;;;;;;5137319;27;20050;-54
2022/10/25 10:30:41;;;;;;;19.70;10.60;;;14.50;99.90;;;;;;5137420;27;20082;-45
2022/10/25 10:33:16;;;;;;;20.05;10.13;;;14.50;99.90;;;;;;5135793;27;20208;-52
2022/10/25 10:35:42;;;;;;;18.98;9.90;;;14.60;99.90;;;;;;5118072;27;20547;-53
2022/10/25 10:38:27;;;;;;;23.52;10.93;;;14.60;99.90;;;;;;5132633;27;20141;-54
2022/10/25 10:41:19;;;;;;;20.38;10.48;;;14.60;99.90;;;;;;5135701;27;20099;-48
2022/10/25 10:43:45;;;;;;;29.23;11.93;;;14.70;99.90;;;;;;5136905;27;20046;-47
2022/10/25 10:46:14;;;;;;;17.05;11.25;;;14.70;99.90;;;;;;5136607;27;20046;-49
2022/10/25 10:48:43;;;;;;;20.27;11.57;;;14.90;99.90;;;;;;5137072;27;20545;-44
2022/10/25 10:51:12;;;;;;;20.67;11.85;;;15.00;99.90;;;;;;5136252;27;20489;-46
2022/10/25 10:53:38;;;;;;;22.20;11.40;;;15.00;99.90;;;;;;5137502;27;20138;-54
2022/10/25 10:56:05;;;;;;;18.77;11.35;;;15.10;99.90;;;;;;5136038;27;20076;-47
2022/10/25 10:58:37;;;;;;;20.30;10.80;;;15.20;99.90;;;;;;5137090;27;20054;-58
2022/10/25 11:01:04;;;;;;;16.85;9.55;;;15.10;99.90;;;;;;5136623;27;20054;-47
2022/10/25 11:03:40;;;;;;;16.98;9.45;;;15.10;99.90;;;;;;5136895;27;20046;-44
2022/10/25 11:06:14;;;;;;;19.05;8.95;;;15.10;99.90;;;;;;5137275;27;20413;-44
2022/10/25 11:08:42;;;;;;;15.60;8.68;;;15.20;99.90;;;;;;5137417;27;20046;-46
2022/10/25 11:11:18;;;;;;;15.10;8.23;;;15.20;99.90;;;;;;5116133;27;20079;-55
2022/10/25 11:13:53;;;;;;;14.82;8.40;;;15.20;99.90;;;;;;5138102;27;20079;-53
2022/10/25 11:16:40;;;;;;;14.27;7.72;;;15.20;99.90;;;;;;5136627;27;20121;-52
2022/10/25 11:19:24;;;;;;;15.30;8.27;;;15.30;99.90;;;;;;5133052;27;20453;-46
2022/10/25 11:21:55;;;;;;;17.88;8.20;;;15.30;99.90;;;;;;5103339;27;20395;-50
2022/10/25 11:24:47;;;;;;;18.67;8.32;;;15.30;99.90;;;;;;5118015;27;20042;-44
2022/10/25 11:27:21;;;;;;;16.88;8.38;;;15.40;99.90;;;;;;5095470;27;20496;-51
2022/10/25 11:29:56;;;;;;;16.27;7.78;;;15.50;99.90;;;;;;5136376;27;20047;-49
2022/10/25 11:32:43;;;;;;;13.25;7.10;;;15.60;99.90;;;;;;5134775;27;20544;-54
2022/10/25 11:35:20;;;;;;;15.43;6.30;;;15.60;99.90;;;;;;5118247;27;20553;-48
2022/10/25 11:38:05;;;;;;;20.08;8.10;;;15.60;99.90;;;;;;5136084;27;20488;-48
2022/10/25 11:40:57;;;;;;;17.23;7.20;;;15.70;99.90;;;;;;5136103;27;20139;-55
2022/10/25 11:43:30;;;;;;;14.07;7.22;;;15.80;99.90;;;;;;5124353;27;20051;-45
2022/10/25 11:45:58;;;;;;;;;;;15.80;99.90;;;;;;5130743;27;20051;-49
2022/10/25 11:48:39;;;;;;;11.05;6.35;;;15.80;99.90;;;;;;5129167;27;19925;-48
2022/10/25 11:51:26;;;;;;;17.02;7.32;;;15.70;99.90;;;;;;5135590;27;20546;-52
2022/10/25 11:54:20;;;;;;;15.95;7.55;;;15.80;99.90;;;;;;5134844;27;20089;-48
2022/10/25 11:57:24;;;;;;;19.92;7.43;;;15.80;99.90;;;;;;5134375;27;20089;-53
2022/10/25 12:00:08;;;;;;;14.68;7.70;;;16.00;99.90;;;;;;5134660;27;20845;-46
2022/10/25 12:03:00;;;;;;;13.18;7.60;;;15.90;99.90;;;;;;5114747;27;20046;-53
2022/10/25 12:06:10;;;;;;;16.17;7.80;;;16.00;99.90;;;;;;5133165;27;20581;-50
2022/10/25 12:08:50;;;;;;;15.05;7.25;;;15.90;99.90;;;;;;5137968;27;20057;-47
2022/10/25 12:11:21;;;;;;;16.58;8.57;;;15.90;99.90;;;;;;5138589;27;20038;-48
2022/10/25 12:13:52;;;;;;;21.73;8.88;;;15.90;99.90;;;;;;5121643;27;20051;-54
2022/10/25 12:16:20;;;;;;;15.30;9.18;;;15.80;99.90;;;;;;5140009;27;20035;-47
2022/10/25 12:18:51;;;;;;;14.05;7.80;;;15.90;99.90;;;;;;5118492;27;20046;-52
2022/10/25 12:21:26;;;;;;;14.70;8.60;;;15.90;99.90;;;;;;5138170;27;20047;-52
2022/10/25 12:23:53;;;;;;;16.15;8.02;;;15.90;99.90;;;;;;5139860;27;20162;-55
2022/10/25 12:26:27;;;;;;;10.30;7.75;;;15.80;99.90;;;;;;5120624;27;20046;-53
2022/10/25 12:28:53;;;;;;;19.05;8.20;;;15.70;99.90;;;;;;5139149;27;20053;-47
2022/10/25 12:31:35;;;;;;;14.57;7.30;;;15.70;99.90;;;;;;5138090;27;20443;-47
2022/10/25 12:34:14;;;;;;;12.52;7.30;;;15.60;99.90;;;;;;5120684;27;20042;-44
2022/10/25 12:36:50;;;;;;;17.15;7.85;;;15.70;99.90;;;;;;5139877;27;20074;-48
2022/10/25 12:39:24;;;;;;;13.63;8.73;;;15.60;99.90;;;;;;5139839;27;20082;-44
2022/10/25 12:42:01;;;;;;;12.45;9.23;;;15.40;99.90;;;;;;5119981;27;20045;-46
2022/10/25 12:44:30;;;;;;;14.85;9.48;;;15.30;99.90;;;;;;5125756;27;20358;-51
2022/10/25 12:47:14;;;;;;;18.70;10.38;;;15.30;99.90;;;;;;5120161;27;20054;-52
2022/10/25 12:49:51;;;;;;;16.40;10.60;;;15.40;99.90;;;;;;5139551;27;20047;-45
2022/10/25 12:52:54;;;;;;;15.45;10.02;;;15.40;99.90;;;;;;5137841;27;20084;-55